createdAt,value
2022-08-31T00:01:28.300Z,67.99
2022-08-31T00:03:54.883Z,67.87
2022-08-31T00:06:22.261Z,68.04
2022-08-31T00:08:48.931Z,68.22
2022-08-31T00:11:15.454Z,68.04
2022-08-31T00:13:42.178Z,68.21
2022-08-31T00:16:12.451Z,68.15
2022-08-31T00:18:39.436Z,68.29
2022-08-31T00:21:06.164Z,68.31
2022-08-31T00:23:32.673Z,68.24
2022-08-31T00:25:59.314Z,68.36
2022-08-31T00:28:26.064Z,68.58
2022-08-31T00:30:52.579Z,68.54
2022-08-31T00:33:19.394Z,68.77
2022-08-31T00:35:46.453Z,68.45
2022-08-31T00:38:13.359Z,68.43
2022-08-31T00:40:45.225Z,68.69
2022-08-31T00:43:32.978Z,68.43
2022-08-31T00:45:59.588Z,68.66
2022-08-31T00:48:26.185Z,68.68
2022-08-31T00:50:53.064Z,68.43
2022-08-31T00:53:19.728Z,69.08
2022-08-31T00:55:47.196Z,68.79
2022-08-31T00:58:14.626Z,68.75
2022-08-31T01:00:42.485Z,68.61
2022-08-31T01:03:09.871Z,68.71
2022-08-31T01:05:37.992Z,69.02
2022-08-31T01:08:05.963Z,68.81
2022-08-31T01:10:40.617Z,69.00
2022-08-31T01:13:07.339Z,68.88
2022-08-31T01:15:36.575Z,68.92
2022-08-31T01:18:06.406Z,69.10
2022-08-31T01:20:45.843Z,69.14
2022-08-31T01:23:31.075Z,69.01
2022-08-31T01:25:59.054Z,68.93
2022-08-31T01:28:26.284Z,69.25
2022-08-31T01:31:14.741Z,69.42
2022-08-31T01:33:41.386Z,68.83
2022-08-31T01:36:11.158Z,68.98
2022-08-31T01:38:41.134Z,69.20
2022-08-31T01:41:07.731Z,69.21
2022-08-31T01:43:35.504Z,69.19
2022-08-31T01:46:05.074Z,69.45
2022-08-31T01:48:41.493Z,69.44
2022-08-31T01:51:09.033Z,69.48
2022-08-31T01:53:42.578Z,69.17
2022-08-31T01:56:15.225Z,69.57
2022-08-31T01:58:42.135Z,69.40
2022-08-31T02:01:50.448Z,69.45
2022-08-31T02:04:19.360Z,69.65
2022-08-31T02:06:50.096Z,69.21
2022-08-31T02:09:18.192Z,69.28
2022-08-31T02:11:44.778Z,69.49
2022-08-31T02:14:11.611Z,69.95
2022-08-31T02:16:39.316Z,69.33
2022-08-31T02:19:07.035Z,69.57
2022-08-31T02:21:36.692Z,69.78
2022-08-31T02:24:04.985Z,69.91
2022-08-31T02:26:31.563Z,69.72
2022-08-31T02:28:58.183Z,69.97
2022-08-31T02:31:24.865Z,69.76
2022-08-31T02:33:57.152Z,69.52
2022-08-31T02:36:24.294Z,69.74
2022-08-31T02:38:51.522Z,69.60
2022-08-31T02:41:19.684Z,69.70
2022-08-31T02:43:46.265Z,69.97
2022-08-31T02:46:12.951Z,69.44
2022-08-31T02:48:44.646Z,69.98
2022-08-31T02:51:16.380Z,69.39
2022-08-31T02:53:46.352Z,69.74
2022-08-31T02:56:12.979Z,69.55
2022-08-31T02:58:40.825Z,69.65
2022-08-31T03:01:07.510Z,69.68
2022-08-31T03:03:35.635Z,69.51
2022-08-31T03:06:03.159Z,69.42
2022-08-31T03:08:31.235Z,69.63
2022-08-31T03:10:58.902Z,69.87
2022-08-31T03:13:25.458Z,69.53
2022-08-31T03:15:52.093Z,69.72
2022-08-31T03:18:18.703Z,69.55
2022-08-31T03:20:45.313Z,70.13
2022-08-31T03:23:12.143Z,70.08
2022-08-31T03:25:39.652Z,70.03
2022-08-31T03:28:07.948Z,70.01
2022-08-31T03:30:37.794Z,70.49
2022-08-31T03:33:10.064Z,70.18
2022-08-31T03:35:36.756Z,70.09
2022-08-31T03:38:03.939Z,70.54
2022-08-31T03:40:31.187Z,70.23
2022-08-31T03:42:58.059Z,70.20
2022-08-31T03:45:26.387Z,70.41
2022-08-31T03:47:53.151Z,70.20
2022-08-31T03:50:22.744Z,70.64
2022-08-31T03:53:11.719Z,70.34
2022-08-31T03:55:40.716Z,71.05
2022-08-31T03:58:08.888Z,70.63
2022-08-31T04:00:36.230Z,70.40
2022-08-31T04:03:09.615Z,70.84
2022-08-31T04:06:14.472Z,70.60
2022-08-31T04:08:59.558Z,70.77
2022-08-31T04:12:01.804Z,70.32
2022-08-31T04:14:46.895Z,70.79
2022-08-31T04:17:32.376Z,70.85
2022-08-31T04:20:18.982Z,71.08
2022-08-31T04:22:56.059Z,70.89
2022-08-31T04:25:32.781Z,70.74
2022-08-31T04:27:59.339Z,71.22
2022-08-31T04:30:26.561Z,71.05
2022-08-31T04:32:53.831Z,71.24
2022-08-31T04:35:20.895Z,71.03
2022-08-31T04:37:47.449Z,71.25
2022-08-31T04:40:15.371Z,70.71
2022-08-31T04:42:47.164Z,71.49
2022-08-31T04:45:14.896Z,71.32
2022-08-31T04:47:42.862Z,71.62
2022-08-31T04:50:11.664Z,71.82
2022-08-31T04:53:03.449Z,71.13
2022-08-31T04:55:31.342Z,71.36
2022-08-31T04:57:57.879Z,71.79
2022-08-31T05:00:24.535Z,71.80
2022-08-31T05:03:29.599Z,72.32
2022-08-31T05:05:56.527Z,72.33
2022-08-31T05:08:23.112Z,71.83
2022-08-31T05:10:49.930Z,72.35
2022-08-31T05:13:16.476Z,71.98
2022-08-31T05:15:44.105Z,72.31
2022-08-31T05:18:14.187Z,72.10
2022-08-31T05:20:48.700Z,72.21
2022-08-31T05:23:15.324Z,71.84
2022-08-31T05:25:41.847Z,72.38
2022-08-31T05:28:08.738Z,72.39
2022-08-31T05:30:35.281Z,73.02
2022-08-31T05:33:06.060Z,73.04
2022-08-31T05:35:34.475Z,72.98
2022-08-31T05:38:00.977Z,73.52
2022-08-31T05:40:28.119Z,73.64
2022-08-31T05:42:55.765Z,73.32
2022-08-31T05:45:22.305Z,73.58
2022-08-31T05:47:48.869Z,73.65
2022-08-31T05:50:15.523Z,74.18
2022-08-31T05:52:42.492Z,74.58
2022-08-31T05:55:09.390Z,74.26
2022-08-31T05:57:35.926Z,74.47
2022-08-31T06:00:02.986Z,74.33
2022-08-31T06:02:39.375Z,74.82
2022-08-31T06:05:07.662Z,74.48
2022-08-31T06:07:34.411Z,75.21
2022-08-31T06:10:03.285Z,74.59
2022-08-31T06:12:30.223Z,74.60
2022-08-31T06:14:56.729Z,75.08
2022-08-31T06:17:23.689Z,75.01
2022-08-31T06:19:50.326Z,74.85
2022-08-31T06:22:17.195Z,75.29
2022-08-31T06:24:43.813Z,74.62
2022-08-31T06:27:10.330Z,74.73
2022-08-31T06:29:37.535Z,75.28
2022-08-31T06:32:04.137Z,74.97
2022-08-31T06:34:30.705Z,74.92
2022-08-31T06:37:07.021Z,75.06
2022-08-31T06:39:53.933Z,74.71
2022-08-31T06:42:26.448Z,75.03
2022-08-31T06:45:02.398Z,75.04
2022-08-31T06:47:43.457Z,74.65
2022-08-31T06:50:11.344Z,74.93
2022-08-31T06:52:39.048Z,74.80
2022-08-31T06:55:22.541Z,74.72
2022-08-31T06:58:07.907Z,73.94
2022-08-31T07:00:55.878Z,74.54
2022-08-31T07:03:26.027Z,74.22
2022-08-31T07:05:52.863Z,74.38
2022-08-31T07:08:20.636Z,74.15
2022-08-31T07:10:47.886Z,74.17
2022-08-31T07:13:14.504Z,74.14
2022-08-31T07:15:41.161Z,73.88
2022-08-31T07:18:10.420Z,73.84
2022-08-31T07:20:37.414Z,74.01
2022-08-31T07:23:06.628Z,73.71
2022-08-31T07:25:39.061Z,73.78
2022-08-31T07:28:05.969Z,73.04
2022-08-31T07:30:33.418Z,73.01
2022-08-31T07:33:01.678Z,72.71
2022-08-31T07:35:28.262Z,72.33
2022-08-31T07:38:06.645Z,71.53
2022-08-31T07:40:35.527Z,71.49
2022-08-31T07:43:03.120Z,70.89
2022-08-31T07:45:33.459Z,71.22
2022-08-31T07:48:04.031Z,70.38
2022-08-31T07:50:50.786Z,70.25
2022-08-31T07:53:23.069Z,69.65
2022-08-31T07:56:02.255Z,69.58
2022-08-31T07:58:40.871Z,69.67
2022-08-31T08:01:08.102Z,68.53
2022-08-31T08:03:34.721Z,68.01
2022-08-31T08:06:19.659Z,68.46
2022-08-31T08:09:23.969Z,67.54
2022-08-31T08:12:00.957Z,67.21
2022-08-31T08:14:40.296Z,66.89
2022-08-31T08:17:27.144Z,66.67
2022-08-31T08:20:13.473Z,66.00
2022-08-31T08:22:54.073Z,65.99
2022-08-31T08:25:34.728Z,65.03
2022-08-31T08:28:22.707Z,64.91
2022-08-31T08:30:54.250Z,64.45
2022-08-31T08:33:22.828Z,63.43
2022-08-31T08:35:57.632Z,62.68
2022-08-31T08:38:25.189Z,62.72
2022-08-31T08:40:52.146Z,62.33
2022-08-31T08:43:26.537Z,62.28
2022-08-31T08:45:56.438Z,61.24
2022-08-31T08:48:30.963Z,61.13
2022-08-31T08:51:12.817Z,59.36
2022-08-31T08:53:59.546Z,59.69
2022-08-31T08:56:34.092Z,60.22
2022-08-31T08:59:05.339Z,59.33
2022-08-31T09:01:36.146Z,58.99
2022-08-31T09:04:28.821Z,58.21
2022-08-31T09:07:31.214Z,57.56
2022-08-31T09:10:09.575Z,56.65
2022-08-31T09:12:41.821Z,56.98
2022-08-31T09:15:27.417Z,57.26
2022-08-31T09:18:13.459Z,57.02
2022-08-31T09:20:40.336Z,56.72
2022-08-31T09:23:07.471Z,55.79
2022-08-31T09:25:47.635Z,54.47
2022-08-31T09:28:35.803Z,53.60
2022-08-31T09:31:03.264Z,52.75
2022-08-31T09:33:33.816Z,53.04
2022-08-31T09:36:18.944Z,50.91
2022-08-31T09:38:47.176Z,50.61
2022-08-31T09:41:28.968Z,49.34
2022-08-31T09:44:21.602Z,49.06
2022-08-31T09:46:51.783Z,49.55
2022-08-31T09:49:21.351Z,48.28
2022-08-31T09:51:47.871Z,48.16
2022-08-31T09:54:14.350Z,47.58
2022-08-31T09:56:55.255Z,47.06
2022-08-31T09:59:49.300Z,46.80
2022-08-31T10:02:21.699Z,46.63
2022-08-31T10:04:56.842Z,46.37
2022-08-31T10:07:45.222Z,45.56
2022-08-31T10:10:30.367Z,45.73
2022-08-31T10:13:11.344Z,45.63
2022-08-31T10:15:37.884Z,44.71
2022-08-31T10:18:41.237Z,43.26
2022-08-31T10:21:19.417Z,44.81
2022-08-31T10:24:01.804Z,43.69
2022-08-31T10:26:55.079Z,43.46
2022-08-31T10:29:34.744Z,42.96
2022-08-31T10:32:08.166Z,43.69
2022-08-31T10:34:40.559Z,43.14
2022-08-31T10:37:29.641Z,43.35
2022-08-31T10:40:03.287Z,42.54
2022-08-31T10:42:37.864Z,42.44
2022-08-31T10:45:18.758Z,42.80
2022-08-31T10:47:48.554Z,43.03
2022-08-31T10:50:27.376Z,41.84
2022-08-31T10:53:40.050Z,41.37
2022-08-31T10:56:25.159Z,41.45
2022-08-31T10:59:23.186Z,41.68
2022-08-31T11:02:37.911Z,42.00
2022-08-31T11:05:26.033Z,41.91
2022-08-31T11:08:02.617Z,42.05
2022-08-31T11:10:44.196Z,40.57
2022-08-31T11:13:52.417Z,39.21
2022-08-31T11:17:12.624Z,38.66
2022-08-31T11:19:48.982Z,39.68
2022-08-31T11:22:27.527Z,39.03
2022-08-31T11:25:08.945Z,38.24
2022-08-31T11:27:42.409Z,39.00
2022-08-31T11:30:21.645Z,38.61
2022-08-31T11:33:00.804Z,38.38
2022-08-31T11:35:49.111Z,37.67
2022-08-31T11:38:40.447Z,37.39
2022-08-31T11:41:07.751Z,38.52
2022-08-31T11:43:34.174Z,38.19
2022-08-31T11:46:22.631Z,37.05
2022-08-31T11:48:53.039Z,38.47
2022-08-31T11:51:45.095Z,37.69
2022-08-31T11:54:34.309Z,38.31
2022-08-31T11:57:00.884Z,38.39
2022-08-31T11:59:34.495Z,37.26
2022-08-31T12:02:19.848Z,36.42
2022-08-31T12:04:46.415Z,37.04
2022-08-31T12:07:25.793Z,37.96
2022-08-31T12:10:07.428Z,37.14
2022-08-31T12:12:36.656Z,37.62
2022-08-31T12:15:32.760Z,36.99
2022-08-31T12:18:15.635Z,37.43
2022-08-31T12:21:31.025Z,37.23
2022-08-31T12:24:25.255Z,37.00
2022-08-31T12:27:21.120Z,36.73
2022-08-31T12:29:47.709Z,36.58
2022-08-31T12:32:46.316Z,37.38
2022-08-31T12:35:22.456Z,37.84
2022-08-31T12:38:03.027Z,37.78
2022-08-31T12:40:34.398Z,38.45
2022-08-31T12:43:16.501Z,38.04
2022-08-31T12:46:01.009Z,38.44
2022-08-31T12:49:01.461Z,39.82
2022-08-31T12:51:40.363Z,40.67
2022-08-31T12:54:06.808Z,41.00
2022-08-31T12:56:47.680Z,41.27
2022-08-31T12:59:51.277Z,40.49
2022-08-31T13:02:19.021Z,41.26
2022-08-31T13:04:47.270Z,41.91
2022-08-31T13:07:30.580Z,40.86
2022-08-31T13:10:24.232Z,42.18
2022-08-31T13:12:54.690Z,42.16
2022-08-31T13:15:28.096Z,42.51
2022-08-31T13:17:55.522Z,43.35
2022-08-31T13:20:28.078Z,43.29
2022-08-31T13:23:00.172Z,42.94
2022-08-31T13:25:29.289Z,42.52
2022-08-31T13:27:55.786Z,42.60
2022-08-31T13:30:22.633Z,42.49
2022-08-31T13:32:52.481Z,43.30
2022-08-31T13:35:22.784Z,42.94
2022-08-31T13:38:01.914Z,43.28
2022-08-31T13:40:35.955Z,43.12
2022-08-31T13:43:04.797Z,43.23
2022-08-31T13:45:34.364Z,43.17
2022-08-31T13:48:05.517Z,40.94
2022-08-31T13:50:36.804Z,39.73
2022-08-31T13:55:51.911Z,39.16
2022-08-31T13:58:29.151Z,39.99
2022-08-31T14:01:24.439Z,40.07
2022-08-31T14:03:57.512Z,39.96
2022-08-31T14:06:25.694Z,39.35
2022-08-31T14:08:58.597Z,39.21
2022-08-31T14:11:25.148Z,38.58
2022-08-31T14:13:51.768Z,37.72
2022-08-31T14:16:34.125Z,35.81
2022-08-31T14:19:00.733Z,37.09
2022-08-31T14:21:33.289Z,35.73
2022-08-31T14:24:00.843Z,34.97
2022-08-31T14:26:38.650Z,34.81
2022-08-31T14:29:13.987Z,35.02
2022-08-31T14:31:45.490Z,36.60
2022-08-31T14:34:23.911Z,36.71
2022-08-31T14:36:52.445Z,37.37
2022-08-31T14:39:34.485Z,36.58
2022-08-31T14:42:05.367Z,36.61
2022-08-31T14:44:41.696Z,35.39
2022-08-31T14:47:09.254Z,35.42
2022-08-31T14:49:36.776Z,34.63
2022-08-31T14:52:05.061Z,34.64
2022-08-31T14:54:33.410Z,34.30
2022-08-31T14:57:02.891Z,34.26
2022-08-31T14:59:32.455Z,33.36
2022-08-31T15:01:59.240Z,34.08
2022-08-31T15:04:25.815Z,34.56
2022-08-31T15:06:54.825Z,34.57
2022-08-31T15:09:21.836Z,34.60
2022-08-31T15:11:48.584Z,34.96
2022-08-31T15:14:15.114Z,34.63
2022-08-31T15:16:44.104Z,34.79
2022-08-31T15:19:11.897Z,34.59
2022-08-31T15:21:50.454Z,34.38
2022-08-31T15:24:24.013Z,33.49
2022-08-31T15:26:52.821Z,32.80
2022-08-31T15:29:20.887Z,32.48
2022-08-31T15:31:50.337Z,32.82
2022-08-31T15:34:31.158Z,32.24
2022-08-31T15:37:00.763Z,33.02
2022-08-31T15:39:30.391Z,32.25
2022-08-31T15:41:56.895Z,32.35
2022-08-31T15:44:23.454Z,31.54
2022-08-31T15:46:49.951Z,31.38
2022-08-31T15:49:16.446Z,31.45
2022-08-31T15:51:44.596Z,30.83
2022-08-31T15:54:21.732Z,31.24
2022-08-31T15:56:48.929Z,31.13
2022-08-31T15:59:15.480Z,30.90
2022-08-31T16:01:42.042Z,30.42
2022-08-31T16:04:08.604Z,31.02
2022-08-31T16:06:35.145Z,30.64
2022-08-31T16:09:02.338Z,30.95
2022-08-31T16:11:31.140Z,30.47
2022-08-31T16:13:57.747Z,30.73
2022-08-31T16:16:30.854Z,30.44
2022-08-31T16:18:58.480Z,30.03
2022-08-31T16:21:27.253Z,29.48
2022-08-31T16:23:57.950Z,29.54
2022-08-31T16:26:24.391Z,29.86
2022-08-31T16:28:51.110Z,29.13
2022-08-31T16:31:17.732Z,28.44
2022-08-31T16:33:44.586Z,28.81
2022-08-31T16:36:16.724Z,27.64
2022-08-31T16:38:47.483Z,27.45
2022-08-31T16:41:15.000Z,27.42
2022-08-31T16:43:41.667Z,27.42
2022-08-31T16:46:30.538Z,27.24
2022-08-31T16:48:56.824Z,27.39
2022-08-31T16:51:23.909Z,26.73
2022-08-31T16:53:51.866Z,26.61
2022-08-31T16:56:20.406Z,26.97
2022-08-31T16:58:52.114Z,26.85
2022-08-31T17:01:25.968Z,25.14
2022-08-31T17:04:02.446Z,24.42
2022-08-31T17:06:32.004Z,24.80
2022-08-31T17:09:05.866Z,24.61
2022-08-31T17:11:37.366Z,25.03
2022-08-31T17:14:06.635Z,26.35
2022-08-31T17:16:36.853Z,26.78
2022-08-31T17:19:05.551Z,27.62
2022-08-31T17:21:32.247Z,28.03
2022-08-31T17:24:02.035Z,28.48
2022-08-31T17:26:33.454Z,29.30
2022-08-31T17:29:02.058Z,29.63
2022-08-31T17:31:31.020Z,30.19
2022-08-31T17:33:58.947Z,30.96
2022-08-31T17:36:26.871Z,31.29
2022-08-31T17:38:53.700Z,31.67
2022-08-31T17:41:20.642Z,32.33
2022-08-31T17:43:47.180Z,31.81
2022-08-31T17:46:15.907Z,32.82
2022-08-31T17:48:43.516Z,32.88
2022-08-31T17:51:28.365Z,33.89
2022-08-31T17:54:00.495Z,33.67
2022-08-31T17:56:39.371Z,34.50
2022-08-31T17:59:15.170Z,34.41
2022-08-31T18:01:43.404Z,35.06
2022-08-31T18:04:10.163Z,35.63
2022-08-31T18:06:36.751Z,35.65
2022-08-31T18:09:04.457Z,36.22
2022-08-31T18:11:30.975Z,36.81
2022-08-31T18:13:57.532Z,37.39
2022-08-31T18:16:24.094Z,37.64
2022-08-31T18:18:50.836Z,38.22
2022-08-31T18:21:21.450Z,38.37
2022-08-31T18:23:49.903Z,38.76
2022-08-31T18:26:26.886Z,39.57
2022-08-31T18:28:54.089Z,39.50
2022-08-31T18:31:22.997Z,40.22
2022-08-31T18:33:49.598Z,40.31
2022-08-31T18:36:19.736Z,40.79
2022-08-31T18:38:59.860Z,41.06
2022-08-31T18:41:28.844Z,41.56
2022-08-31T18:43:55.404Z,41.41
2022-08-31T18:46:24.996Z,41.88
2022-08-31T18:48:51.541Z,42.00
2022-08-31T18:51:19.652Z,42.60
2022-08-31T18:53:46.262Z,42.40
2022-08-31T18:56:12.817Z,42.75
2022-08-31T18:58:39.480Z,43.24
2022-08-31T19:01:06.811Z,43.46
2022-08-31T19:03:33.406Z,44.01
2022-08-31T19:05:59.926Z,43.73
2022-08-31T19:08:26.749Z,43.54
2022-08-31T19:10:53.956Z,43.98
2022-08-31T19:13:20.727Z,43.83
2022-08-31T19:15:47.466Z,44.48
2022-08-31T19:18:14.473Z,44.21
2022-08-31T19:20:41.116Z,44.54
2022-08-31T19:23:08.287Z,45.07
2022-08-31T19:25:44.320Z,45.65
2022-08-31T19:28:11.337Z,45.64
2022-08-31T19:30:38.438Z,45.94
2022-08-31T19:33:05.845Z,46.26
2022-08-31T19:35:32.334Z,46.33
2022-08-31T19:37:58.902Z,46.44
2022-08-31T19:40:35.585Z,46.56
2022-08-31T19:45:49.930Z,47.83
2022-08-31T19:48:17.254Z,48.43
2022-08-31T19:50:43.893Z,47.90
2022-08-31T19:53:10.502Z,48.23
2022-08-31T19:55:37.040Z,49.00
2022-08-31T19:58:03.537Z,48.89
2022-08-31T20:00:30.136Z,50.01
2022-08-31T20:02:56.708Z,50.52
2022-08-31T20:05:23.294Z,50.66
2022-08-31T20:07:49.792Z,50.21
2022-08-31T20:10:21.786Z,50.77
2022-08-31T20:12:48.930Z,50.85
2022-08-31T20:15:19.052Z,51.78
2022-08-31T20:17:45.575Z,51.95
2022-08-31T20:20:12.093Z,52.02
2022-08-31T20:22:38.578Z,52.50
2022-08-31T20:25:05.541Z,52.46
2022-08-31T20:27:34.647Z,52.61
2022-08-31T20:30:01.924Z,53.42
2022-08-31T20:32:28.407Z,52.74
2022-08-31T20:34:56.053Z,53.95
2022-08-31T20:37:22.601Z,53.83
2022-08-31T20:39:49.077Z,54.14
2022-08-31T20:42:15.796Z,54.66
2022-08-31T20:44:42.297Z,54.22
2022-08-31T20:47:10.764Z,55.15
2022-08-31T20:49:43.210Z,54.94
2022-08-31T20:52:12.959Z,55.37
2022-08-31T20:54:42.209Z,54.90
2022-08-31T20:57:10.503Z,55.60
2022-08-31T20:59:37.620Z,55.96
2022-08-31T21:02:06.812Z,56.33
2022-08-31T21:04:38.228Z,56.34
2022-08-31T21:07:06.390Z,55.84
2022-08-31T21:09:33.340Z,56.09
2022-08-31T21:12:00.606Z,56.73
2022-08-31T21:14:28.591Z,57.09
2022-08-31T21:16:56.024Z,57.24
2022-08-31T21:19:23.976Z,57.03
2022-08-31T21:21:52.821Z,57.35
2022-08-31T21:24:20.932Z,56.90
2022-08-31T21:26:49.027Z,57.34
2022-08-31T21:29:17.767Z,57.51
2022-08-31T21:31:48.930Z,57.90
2022-08-31T21:34:22.889Z,57.80
2022-08-31T21:36:49.788Z,58.01
2022-08-31T21:39:18.669Z,58.04
2022-08-31T21:41:46.747Z,58.29
2022-08-31T21:44:15.390Z,58.24
2022-08-31T21:46:43.343Z,58.33
2022-08-31T21:49:12.419Z,58.83
2022-08-31T21:51:46.675Z,58.66
2022-08-31T21:54:14.487Z,58.79
2022-08-31T21:56:49.264Z,59.36
2022-08-31T21:59:18.310Z,59.25
2022-08-31T22:01:45.809Z,59.39
2022-08-31T22:04:13.991Z,59.68
2022-08-31T22:06:41.217Z,59.96
2022-08-31T22:09:15.408Z,59.83
2022-08-31T22:11:44.799Z,59.81
2022-08-31T22:14:13.871Z,59.87
2022-08-31T22:16:40.383Z,60.04
2022-08-31T22:19:08.951Z,60.04
2022-08-31T22:21:35.526Z,60.50
2022-08-31T22:24:05.825Z,60.35
2022-08-31T22:26:35.079Z,60.47
2022-08-31T22:29:01.890Z,60.43
2022-08-31T22:31:28.568Z,60.62
2022-08-31T22:33:55.408Z,60.67
2022-08-31T22:36:31.852Z,61.16
2022-08-31T22:39:00.862Z,60.78
2022-08-31T22:41:27.392Z,60.78
2022-08-31T22:43:53.932Z,61.25
2022-08-31T22:46:20.514Z,60.67
2022-08-31T22:48:47.796Z,61.18
2022-08-31T22:51:15.667Z,60.80
2022-08-31T22:53:45.616Z,61.43
2022-08-31T22:56:26.957Z,61.65
2022-08-31T22:58:55.761Z,61.37
2022-08-31T23:01:32.202Z,61.09
2022-08-31T23:04:00.624Z,61.69
2022-08-31T23:06:28.911Z,61.70
2022-08-31T23:08:57.160Z,61.97
2022-08-31T23:11:25.308Z,61.67
2022-08-31T23:13:53.599Z,61.74
2022-08-31T23:16:25.386Z,62.25
2022-08-31T23:18:58.113Z,62.26
2022-08-31T23:21:26.825Z,62.02
2022-08-31T23:23:57.599Z,62.38
2022-08-31T23:26:24.316Z,62.42
2022-08-31T23:28:50.935Z,62.00
2022-08-31T23:31:17.541Z,62.54
2022-08-31T23:33:44.103Z,63.10
2022-08-31T23:36:10.639Z,62.34
2022-08-31T23:38:37.122Z,62.79
2022-08-31T23:41:03.863Z,62.77
2022-08-31T23:43:30.820Z,62.76
2022-08-31T23:46:01.144Z,62.92
2022-08-31T23:48:28.436Z,63.02
2022-08-31T23:50:55.286Z,62.76
2022-08-31T23:53:23.085Z,63.22
2022-08-31T23:55:49.601Z,63.06
2022-08-31T23:58:16.332Z,63.42
